Location Sebastian, FL, US

ob KFLSEBAS1 210540Z AUTO 23000G02KT CLR 28/25 A2999 RMK SLPNO 

2018.07.21 0540 UTC
Wind from the SW (231 degrees) at Calm MPH ( KT) gusting to 2.0 MPH (2 KT)
Visibility    Mile(s)
Sky Conditions  clear
Temperature 82.70 F (28 C)
Dew Point 77.01 F (25 C)
Relative Humidity 83%
Pressure   29.99 in. Hg (1016 hPa)
Rain  0.00 in.
Daily Rain  in.

Station Name  Memory Makers, Inc.
Longitude, Latitude  -80.48, 27.8
Elevation 23
Station URL www.kflsebas1.com
Software Type VWS V15.00